createdAt,value
2023-04-30T00:00:41.415Z,12.41
2023-04-30T00:02:04.513Z,12.39
2023-04-30T00:03:07.570Z,12.39
2023-04-30T00:04:10.612Z,12.37
2023-04-30T00:05:13.477Z,12.37
2023-04-30T00:06:16.432Z,12.38
2023-04-30T00:07:19.362Z,12.36
2023-04-30T00:08:22.290Z,12.34
2023-04-30T00:09:25.519Z,12.34
2023-04-30T00:10:28.434Z,12.32
2023-04-30T00:11:31.368Z,12.33
2023-04-30T00:12:34.186Z,12.32
2023-04-30T00:13:37.562Z,12.31
2023-04-30T00:14:40.380Z,12.31
2023-04-30T00:15:43.199Z,12.35
2023-04-30T00:16:46.504Z,12.35
2023-04-30T00:17:49.459Z,12.36
2023-04-30T00:18:52.404Z,12.31
2023-04-30T00:19:55.782Z,12.33
2023-04-30T00:20:58.718Z,12.30
2023-04-30T00:22:05.542Z,12.32
2023-04-30T00:23:08.497Z,12.31
2023-04-30T00:24:11.655Z,12.31
2023-04-30T00:25:14.573Z,12.31
2023-04-30T00:26:17.402Z,12.34
2023-04-30T00:27:21.786Z,12.31
2023-04-30T00:28:24.647Z,12.28
2023-04-30T00:29:27.517Z,12.30
2023-04-30T00:30:30.467Z,12.27
2023-04-30T00:31:33.388Z,12.28
2023-04-30T00:32:36.449Z,12.27
2023-04-30T00:33:39.588Z,12.28
2023-04-30T00:34:42.805Z,12.28
2023-04-30T00:35:45.770Z,12.28
2023-04-30T00:36:48.590Z,12.31
2023-04-30T00:37:51.445Z,12.31
2023-04-30T00:38:54.331Z,12.36
2023-04-30T00:39:57.506Z,12.32
2023-04-30T00:41:00.500Z,12.31
2023-04-30T00:42:03.423Z,12.35
2023-04-30T00:43:06.333Z,12.33
2023-04-30T00:44:09.187Z,12.39
2023-04-30T00:45:12.288Z,12.34
2023-04-30T00:46:15.384Z,12.34
2023-04-30T00:47:18.475Z,12.35
2023-04-30T00:48:21.893Z,12.37
2023-04-30T00:49:25.374Z,12.37
2023-04-30T00:50:29.374Z,12.38
2023-04-30T00:51:33.445Z,12.38
2023-04-30T00:52:36.430Z,12.38
2023-04-30T00:53:41.373Z,12.38
2023-04-30T00:54:44.349Z,12.39
2023-04-30T00:55:48.648Z,12.41
2023-04-30T00:56:52.140Z,12.42
2023-04-30T00:57:55.287Z,12.42
2023-04-30T00:58:58.496Z,12.45
2023-04-30T01:00:02.122Z,12.45
2023-04-30T01:01:06.929Z,12.48
2023-04-30T01:02:10.376Z,12.46
2023-04-30T01:03:14.521Z,12.47
2023-04-30T01:04:18.382Z,12.47
2023-04-30T01:05:22.985Z,12.47
2023-04-30T01:06:27.037Z,12.48
2023-04-30T01:07:31.402Z,12.47
2023-04-30T01:08:34.750Z,12.48
2023-04-30T01:09:38.186Z,12.50
2023-04-30T01:11:19.880Z,12.53
2023-04-30T01:12:42.845Z,12.50
2023-04-30T01:14:08.458Z,12.50
2023-04-30T01:15:33.416Z,12.51
2023-04-30T01:16:58.402Z,12.51
2023-04-30T01:18:09.267Z,12.54
2023-04-30T01:19:41.129Z,12.52
2023-04-30T01:21:07.748Z,12.52
2023-04-30T01:22:24.159Z,12.51
2023-04-30T01:23:35.980Z,12.52
2023-04-30T01:25:02.186Z,12.51
2023-04-30T01:26:08.434Z,12.52
2023-04-30T01:27:48.343Z,12.51
2023-04-30T01:28:53.458Z,12.50
2023-04-30T01:29:58.018Z,12.49
2023-04-30T01:31:01.635Z,12.51
2023-04-30T01:32:04.593Z,12.55
2023-04-30T01:33:07.580Z,12.56
2023-04-30T01:34:10.635Z,12.56
2023-04-30T01:35:13.479Z,12.55
2023-04-30T01:37:10.651Z,12.56
2023-04-30T01:38:37.746Z,12.56
2023-04-30T01:40:11.432Z,12.56
2023-04-30T01:41:24.761Z,12.56
2023-04-30T01:43:05.793Z,12.56
2023-04-30T01:44:41.239Z,12.55
2023-04-30T01:45:54.509Z,12.53
2023-04-30T01:47:17.262Z,12.52
2023-04-30T01:48:32.626Z,12.53
2023-04-30T01:50:01.076Z,12.53
2023-04-30T01:51:22.750Z,12.53
2023-04-30T01:52:43.054Z,12.54
2023-04-30T01:53:47.003Z,12.55
2023-04-30T01:54:56.420Z,12.55
2023-04-30T01:56:03.733Z,12.55
2023-04-30T01:57:11.629Z,12.50
2023-04-30T01:58:16.767Z,12.50
2023-04-30T01:59:20.266Z,12.50
2023-04-30T02:00:23.659Z,12.50
2023-04-30T02:01:28.740Z,12.51
2023-04-30T02:02:31.916Z,12.52
2023-04-30T02:03:34.844Z,12.51
2023-04-30T02:04:38.403Z,12.51
2023-04-30T02:05:41.382Z,12.50
2023-04-30T02:06:44.311Z,12.51
2023-04-30T02:07:49.297Z,12.50
2023-04-30T02:08:52.245Z,12.49
2023-04-30T02:09:55.335Z,12.51
2023-04-30T02:10:58.400Z,12.51
2023-04-30T02:12:01.284Z,12.51
2023-04-30T02:13:04.173Z,12.51
2023-04-30T02:14:07.199Z,12.53
2023-04-30T02:15:10.956Z,12.53
2023-04-30T02:16:14.019Z,12.53
2023-04-30T02:17:16.901Z,12.53
2023-04-30T02:18:19.802Z,12.53
2023-04-30T02:19:23.137Z,12.53
2023-04-30T02:20:25.982Z,12.53
2023-04-30T02:21:29.381Z,12.53
2023-04-30T02:22:32.272Z,12.53
2023-04-30T02:23:35.440Z,12.53
2023-04-30T02:24:38.297Z,12.53
2023-04-30T02:25:41.771Z,12.52
2023-04-30T02:26:44.688Z,12.52
2023-04-30T02:27:47.777Z,12.51
2023-04-30T02:28:50.677Z,12.50
2023-04-30T02:29:54.138Z,12.48
2023-04-30T02:30:57.414Z,12.46
2023-04-30T02:32:00.896Z,12.45
2023-04-30T02:33:03.976Z,12.45
2023-04-30T02:34:06.901Z,12.44
2023-04-30T02:35:09.849Z,12.43
2023-04-30T02:36:12.737Z,12.43
2023-04-30T02:37:16.111Z,12.42
2023-04-30T02:38:18.950Z,12.42
2023-04-30T02:39:22.003Z,12.42
2023-04-30T02:40:24.887Z,12.41
2023-04-30T02:41:27.711Z,12.39
2023-04-30T02:42:31.095Z,12.39
2023-04-30T02:43:33.986Z,12.38
2023-04-30T02:44:36.950Z,12.38
2023-04-30T02:45:40.420Z,12.38
2023-04-30T02:46:43.320Z,12.37
2023-04-30T02:47:46.201Z,12.37
2023-04-30T02:48:49.167Z,12.36
2023-04-30T02:49:52.724Z,12.39
2023-04-30T02:50:55.875Z,12.36
2023-04-30T02:51:58.787Z,12.36
2023-04-30T02:53:01.974Z,12.36
2023-04-30T02:54:04.776Z,12.34
2023-04-30T02:55:08.103Z,12.39
2023-04-30T02:56:11.219Z,12.33
2023-04-30T02:57:14.140Z,12.33
2023-04-30T02:58:17.013Z,12.33
2023-04-30T02:59:19.900Z,12.32
2023-04-30T03:00:23.266Z,12.31
2023-04-30T03:01:26.420Z,12.30
2023-04-30T03:02:29.861Z,12.30
2023-04-30T03:03:33.780Z,12.29
2023-04-30T03:04:36.689Z,12.28
2023-04-30T03:05:39.872Z,12.26
2023-04-30T03:06:42.717Z,12.25
2023-04-30T03:07:47.168Z,12.23
2023-04-30T03:08:50.028Z,12.22
2023-04-30T03:09:53.036Z,12.22
2023-04-30T03:10:56.241Z,12.22
2023-04-30T03:11:59.288Z,12.21
2023-04-30T03:13:02.294Z,12.22
2023-04-30T03:14:05.252Z,12.19
2023-04-30T03:15:09.032Z,12.18
2023-04-30T03:16:12.065Z,12.18
2023-04-30T03:17:14.990Z,12.17
2023-04-30T03:18:17.863Z,12.15
2023-04-30T03:19:25.135Z,12.17
2023-04-30T03:20:28.365Z,12.12
2023-04-30T03:21:31.602Z,12.10
2023-04-30T03:22:34.504Z,12.09
2023-04-30T03:23:37.714Z,12.12
2023-04-30T03:24:41.258Z,12.07
2023-04-30T03:25:44.897Z,12.06
2023-04-30T03:26:47.793Z,12.09
2023-04-30T03:27:50.661Z,12.07
2023-04-30T03:28:55.244Z,12.07
2023-04-30T03:29:58.058Z,12.01
2023-04-30T03:31:01.256Z,11.99
2023-04-30T03:32:04.446Z,11.97
2023-04-30T03:33:07.986Z,11.94
2023-04-30T03:34:11.483Z,11.90
2023-04-30T03:35:14.535Z,11.86
2023-04-30T03:36:17.387Z,11.79
2023-04-30T03:37:20.287Z,11.76
2023-04-30T03:38:23.251Z,11.71
2023-04-30T03:39:26.235Z,11.66
2023-04-30T03:40:29.307Z,11.63
2023-04-30T03:41:32.232Z,11.57
2023-04-30T03:42:35.155Z,11.55
2023-04-30T03:43:38.337Z,11.48
2023-04-30T03:44:41.408Z,11.45
2023-04-30T03:45:44.739Z,11.39
2023-04-30T03:46:47.610Z,11.35
2023-04-30T03:47:52.237Z,11.34
2023-04-30T03:48:55.209Z,11.28
2023-04-30T03:49:58.115Z,11.25
2023-04-30T03:51:01.427Z,11.22
2023-04-30T03:52:05.729Z,11.18
2023-04-30T03:53:09.147Z,11.16
2023-04-30T03:54:12.092Z,11.17
2023-04-30T03:55:15.284Z,11.12
2023-04-30T03:56:18.332Z,11.09
2023-04-30T03:57:21.783Z,11.09
2023-04-30T03:58:24.967Z,11.10
2023-04-30T03:59:27.783Z,11.04
2023-04-30T04:00:31.235Z,11.02
2023-04-30T04:01:34.360Z,10.99
2023-04-30T04:02:37.844Z,10.95
2023-04-30T04:03:40.998Z,10.94
2023-04-30T04:04:44.109Z,10.93
2023-04-30T04:05:47.409Z,10.93
2023-04-30T04:06:50.661Z,10.89
2023-04-30T04:07:54.048Z,10.87
2023-04-30T04:08:56.871Z,10.84
2023-04-30T04:09:59.790Z,10.84
2023-04-30T04:11:03.344Z,10.81
2023-04-30T04:12:06.784Z,10.82
2023-04-30T04:13:09.723Z,10.80
2023-04-30T04:14:12.724Z,10.78
2023-04-30T04:15:15.665Z,10.77
2023-04-30T04:16:20.786Z,10.77
2023-04-30T04:17:23.777Z,10.80
2023-04-30T04:18:26.734Z,10.75
2023-04-30T04:19:29.648Z,10.77
2023-04-30T04:20:34.084Z,10.75
2023-04-30T04:21:37.124Z,10.77
2023-04-30T04:22:43.072Z,10.78
2023-04-30T04:23:46.444Z,10.78
2023-04-30T04:24:49.904Z,10.77
2023-04-30T04:25:55.508Z,10.80
2023-04-30T04:26:58.384Z,10.78
2023-04-30T04:28:01.271Z,10.78
2023-04-30T04:29:05.010Z,10.79
2023-04-30T04:30:08.343Z,10.81
2023-04-30T04:31:11.673Z,10.82
2023-04-30T04:32:15.039Z,10.84
2023-04-30T04:33:18.369Z,10.85
2023-04-30T04:34:21.409Z,10.85
2023-04-30T04:35:24.364Z,10.85
2023-04-30T04:36:28.816Z,10.85
2023-04-30T04:37:32.091Z,10.85
2023-04-30T04:38:34.933Z,10.83
2023-04-30T04:39:38.600Z,10.84
2023-04-30T04:40:41.547Z,10.85
2023-04-30T04:41:44.701Z,10.88
2023-04-30T04:42:50.519Z,10.86
2023-04-30T04:43:53.549Z,10.88
2023-04-30T04:44:56.857Z,10.87
2023-04-30T04:45:59.771Z,10.85
2023-04-30T04:47:03.537Z,10.88
2023-04-30T04:48:07.459Z,10.86
2023-04-30T04:49:10.416Z,10.86
2023-04-30T04:50:13.846Z,10.86
2023-04-30T04:51:16.908Z,10.89
2023-04-30T04:52:19.815Z,10.90
2023-04-30T04:53:24.289Z,10.89
2023-04-30T04:54:27.209Z,10.90
2023-04-30T04:55:30.114Z,10.91
2023-04-30T04:56:34.157Z,10.90
2023-04-30T04:57:37.052Z,10.90
2023-04-30T04:58:40.063Z,10.94
2023-04-30T04:59:42.928Z,10.95
2023-04-30T05:00:45.889Z,10.92
2023-04-30T05:01:49.769Z,10.95
2023-04-30T05:02:53.613Z,10.96
2023-04-30T05:03:56.863Z,10.96
2023-04-30T05:05:00.158Z,10.96
2023-04-30T05:06:03.929Z,11.00
2023-04-30T05:07:08.182Z,10.99
2023-04-30T05:08:11.167Z,11.00
2023-04-30T05:09:14.147Z,11.04
2023-04-30T05:10:17.216Z,11.02
2023-04-30T05:11:20.115Z,11.06
2023-04-30T05:12:23.155Z,11.05
2023-04-30T05:13:26.464Z,11.07
2023-04-30T05:14:29.516Z,11.06
2023-04-30T05:15:32.382Z,11.07
2023-04-30T05:16:35.457Z,11.07
2023-04-30T05:17:38.443Z,11.09
2023-04-30T05:18:41.370Z,11.05
2023-04-30T05:19:44.761Z,11.07
2023-04-30T05:20:47.665Z,11.06
2023-04-30T05:21:51.392Z,11.09
2023-04-30T05:22:54.218Z,11.09
2023-04-30T05:23:57.228Z,11.08
2023-04-30T05:25:00.325Z,11.12
2023-04-30T05:26:03.914Z,11.16
2023-04-30T05:27:06.781Z,11.17
2023-04-30T05:28:09.956Z,11.18
2023-04-30T05:29:12.987Z,11.21
2023-04-30T05:30:15.978Z,11.24
2023-04-30T05:31:20.784Z,11.26
2023-04-30T05:32:24.102Z,11.30
2023-04-30T05:33:27.456Z,11.28
2023-04-30T05:34:30.403Z,11.28
2023-04-30T05:35:36.119Z,11.29
2023-04-30T05:36:39.258Z,11.28
2023-04-30T05:37:42.119Z,11.31
2023-04-30T05:38:45.013Z,11.35
2023-04-30T05:39:47.915Z,11.32
2023-04-30T05:40:50.815Z,11.33
2023-04-30T05:41:53.665Z,11.32
2023-04-30T05:42:56.784Z,11.34
2023-04-30T05:43:59.744Z,11.35
2023-04-30T05:45:03.155Z,11.38
2023-04-30T05:46:06.703Z,11.36
2023-04-30T05:47:09.795Z,11.37
2023-04-30T05:48:13.163Z,11.41
2023-04-30T05:49:16.103Z,11.40
2023-04-30T05:50:19.008Z,11.43
2023-04-30T05:51:21.873Z,11.43
2023-04-30T05:52:24.827Z,11.43
2023-04-30T05:53:28.356Z,11.45
2023-04-30T05:54:31.462Z,11.43
2023-04-30T05:55:34.725Z,11.45
2023-04-30T05:56:37.592Z,11.43
2023-04-30T05:57:40.459Z,11.42
2023-04-30T05:58:43.369Z,11.43
2023-04-30T05:59:46.223Z,11.45
2023-04-30T06:00:52.102Z,11.48
2023-04-30T06:01:55.021Z,11.48
2023-04-30T06:02:58.220Z,11.45
2023-04-30T06:04:01.420Z,11.45
2023-04-30T06:05:04.597Z,11.47
2023-04-30T06:06:07.729Z,11.45
2023-04-30T06:07:10.909Z,11.44
2023-04-30T06:08:14.115Z,11.44
2023-04-30T06:09:16.942Z,11.46
2023-04-30T06:10:19.790Z,11.45
2023-04-30T06:11:22.772Z,11.44
2023-04-30T06:12:26.168Z,11.47
2023-04-30T06:13:29.055Z,11.53
2023-04-30T06:14:32.176Z,11.60
2023-04-30T06:15:35.198Z,11.70
2023-04-30T06:16:38.595Z,11.75
2023-04-30T06:17:41.547Z,11.78
2023-04-30T06:18:44.760Z,11.80
2023-04-30T06:19:47.628Z,11.83
2023-04-30T06:20:50.546Z,11.89
2023-04-30T06:21:53.372Z,11.94
2023-04-30T06:22:56.254Z,11.98
2023-04-30T06:23:59.128Z,12.01
2023-04-30T06:25:02.045Z,12.07
2023-04-30T06:26:05.004Z,12.13
2023-04-30T06:27:07.843Z,12.24
2023-04-30T06:28:10.864Z,12.33
2023-04-30T06:29:13.757Z,12.58
2023-04-30T06:30:16.963Z,12.75
2023-04-30T06:31:19.885Z,12.91
2023-04-30T06:32:22.833Z,13.06
2023-04-30T06:33:25.838Z,13.20
2023-04-30T06:34:28.805Z,13.39
2023-04-30T06:35:31.626Z,13.59
2023-04-30T06:36:34.494Z,13.81
2023-04-30T06:37:38.121Z,14.03
2023-04-30T06:38:42.622Z,14.25
2023-04-30T06:39:45.569Z,14.51
2023-04-30T06:40:48.542Z,14.67
2023-04-30T06:41:52.118Z,14.81
2023-04-30T06:42:57.898Z,14.94
2023-04-30T06:44:00.871Z,15.14
2023-04-30T06:45:04.179Z,15.23
2023-04-30T06:46:07.155Z,15.39
2023-04-30T06:47:13.653Z,15.57
2023-04-30T06:48:16.631Z,15.77
2023-04-30T06:49:19.544Z,15.92
2023-04-30T06:50:22.439Z,16.08
2023-04-30T06:51:25.726Z,16.25
2023-04-30T06:52:31.264Z,16.45
2023-04-30T06:53:34.138Z,16.61
2023-04-30T06:54:37.180Z,16.75
2023-04-30T06:55:41.396Z,16.84
2023-04-30T06:56:45.202Z,16.88
2023-04-30T06:57:48.277Z,16.86
2023-04-30T06:58:51.112Z,16.88
2023-04-30T06:59:55.998Z,16.88
2023-04-30T07:00:59.016Z,16.83
2023-04-30T07:02:02.062Z,16.82
2023-04-30T07:03:05.058Z,16.86
2023-04-30T07:04:08.000Z,16.93
2023-04-30T07:05:12.206Z,16.99
2023-04-30T07:06:15.624Z,17.04
2023-04-30T07:07:18.608Z,17.17
2023-04-30T07:08:22.130Z,17.32
2023-04-30T07:09:24.973Z,17.56
2023-04-30T07:10:28.066Z,17.74
2023-04-30T07:11:31.230Z,17.72
2023-04-30T07:12:34.197Z,17.57
2023-04-30T07:13:37.384Z,17.39
2023-04-30T07:14:40.416Z,17.25
2023-04-30T07:15:43.520Z,17.21
2023-04-30T07:16:46.448Z,17.24
2023-04-30T07:17:49.689Z,17.28
2023-04-30T07:18:52.607Z,17.41
2023-04-30T07:19:56.022Z,17.53
2023-04-30T07:20:59.566Z,17.51
2023-04-30T07:22:02.607Z,17.49
2023-04-30T07:23:05.449Z,17.42
2023-04-30T07:24:08.436Z,17.44
2023-04-30T07:25:12.334Z,17.49
2023-04-30T07:26:15.766Z,17.53
2023-04-30T07:27:18.626Z,17.57
2023-04-30T07:28:21.501Z,17.67
2023-04-30T07:29:24.351Z,17.72
2023-04-30T07:30:27.196Z,17.65
2023-04-30T07:31:30.263Z,17.59
2023-04-30T07:32:34.442Z,17.53
2023-04-30T07:33:37.572Z,17.53
2023-04-30T07:34:42.238Z,17.58
2023-04-30T07:35:45.213Z,17.66
2023-04-30T07:36:49.267Z,17.72
2023-04-30T07:37:52.138Z,17.75
2023-04-30T07:38:55.604Z,17.76
2023-04-30T07:39:58.540Z,17.80
2023-04-30T07:41:02.338Z,17.88
2023-04-30T07:42:05.588Z,17.99
2023-04-30T07:43:08.392Z,18.11
2023-04-30T07:44:12.206Z,18.10
2023-04-30T07:45:15.187Z,17.97
2023-04-30T07:46:18.299Z,17.80
2023-04-30T07:47:21.396Z,17.61
2023-04-30T07:48:24.263Z,17.46
2023-04-30T07:49:27.160Z,17.41
2023-04-30T07:50:33.928Z,17.41
2023-04-30T07:51:37.525Z,17.41
2023-04-30T07:52:41.297Z,17.44
2023-04-30T07:53:44.144Z,17.42
2023-04-30T07:54:47.035Z,17.42
2023-04-30T07:55:49.872Z,17.42
2023-04-30T07:56:52.745Z,17.41
2023-04-30T07:57:55.674Z,17.48
2023-04-30T07:58:58.496Z,17.56
2023-04-30T08:00:01.302Z,17.66
2023-04-30T08:01:04.290Z,17.78
2023-04-30T08:02:08.855Z,17.86
2023-04-30T08:03:12.488Z,17.94
2023-04-30T08:04:15.542Z,18.06
2023-04-30T08:05:18.607Z,18.07
2023-04-30T08:06:21.927Z,18.07
2023-04-30T08:07:25.652Z,18.00
2023-04-30T08:08:28.527Z,17.96
2023-04-30T08:09:31.630Z,17.91
2023-04-30T08:10:34.992Z,17.76
2023-04-30T08:11:37.865Z,17.70
2023-04-30T08:12:40.883Z,17.73
2023-04-30T08:13:43.808Z,17.76
2023-04-30T08:14:46.655Z,17.71
2023-04-30T08:15:49.589Z,17.69
2023-04-30T08:16:52.554Z,17.73
2023-04-30T08:17:55.684Z,17.72
2023-04-30T08:18:59.433Z,17.64
2023-04-30T08:20:04.557Z,17.56
2023-04-30T08:21:07.680Z,17.51
2023-04-30T08:22:10.899Z,17.49
2023-04-30T08:23:13.805Z,17.50
2023-04-30T08:24:16.662Z,17.49
2023-04-30T08:25:19.787Z,17.44
2023-04-30T08:26:23.501Z,17.39
2023-04-30T08:27:26.352Z,17.34
2023-04-30T08:28:29.199Z,17.31
2023-04-30T08:29:32.066Z,17.31
2023-04-30T08:30:34.929Z,17.33
2023-04-30T08:31:37.974Z,17.30
2023-04-30T08:32:41.678Z,17.26
2023-04-30T08:33:44.604Z,17.21
2023-04-30T08:34:47.490Z,17.20
2023-04-30T08:35:51.645Z,17.17
2023-04-30T08:36:54.558Z,17.13
2023-04-30T08:37:57.513Z,17.15
2023-04-30T08:39:02.217Z,17.18
2023-04-30T08:40:09.791Z,17.23
2023-04-30T08:41:13.867Z,17.27
2023-04-30T08:42:19.155Z,17.26
2023-04-30T08:43:22.651Z,17.19
2023-04-30T08:44:27.487Z,17.12
2023-04-30T08:45:32.235Z,17.12
2023-04-30T08:46:37.158Z,17.17
2023-04-30T08:47:41.195Z,17.21
2023-04-30T08:48:44.997Z,17.24
2023-04-30T08:49:52.260Z,17.22
2023-04-30T08:50:55.347Z,17.23
2023-04-30T08:52:00.326Z,17.12
2023-04-30T08:53:03.410Z,17.03
2023-04-30T08:54:06.404Z,17.02
2023-04-30T08:55:11.227Z,17.05
2023-04-30T08:56:14.232Z,17.11
2023-04-30T08:57:17.123Z,17.15
2023-04-30T08:58:20.165Z,17.23
2023-04-30T08:59:23.042Z,17.27
2023-04-30T09:00:27.037Z,17.32
2023-04-30T09:01:31.101Z,17.29
2023-04-30T09:02:34.978Z,17.30
2023-04-30T09:03:38.188Z,17.35
2023-04-30T09:04:41.304Z,17.43
2023-04-30T09:05:44.315Z,17.47
2023-04-30T09:06:47.324Z,17.52
2023-04-30T09:08:01.543Z,17.50
2023-04-30T09:09:11.658Z,17.54
2023-04-30T09:10:22.965Z,17.51
2023-04-30T09:11:31.990Z,17.49
2023-04-30T09:12:36.253Z,17.50
2023-04-30T09:13:42.110Z,17.44
2023-04-30T09:15:05.748Z,17.40
2023-04-30T09:16:08.717Z,17.36
2023-04-30T09:17:22.091Z,17.36
2023-04-30T09:18:24.972Z,17.40
2023-04-30T09:19:29.791Z,17.45
2023-04-30T09:20:32.796Z,17.60
2023-04-30T09:21:36.886Z,17.73
2023-04-30T09:22:41.541Z,17.76
2023-04-30T09:24:05.463Z,17.73
2023-04-30T09:25:09.785Z,17.77
2023-04-30T09:26:26.272Z,17.88
2023-04-30T09:27:29.122Z,18.00
2023-04-30T09:28:32.070Z,18.11
2023-04-30T09:29:38.060Z,18.25
2023-04-30T09:30:41.702Z,18.39
2023-04-30T09:31:47.718Z,18.56
2023-04-30T09:32:57.104Z,18.69
2023-04-30T09:34:00.425Z,18.74
2023-04-30T09:35:03.336Z,18.73
2023-04-30T09:36:10.045Z,18.65
2023-04-30T09:37:13.548Z,18.65
2023-04-30T09:38:32.006Z,18.68
2023-04-30T09:39:47.525Z,18.75
2023-04-30T09:40:50.511Z,18.91
2023-04-30T09:41:57.211Z,18.96
2023-04-30T09:43:00.426Z,18.86
2023-04-30T09:44:03.512Z,18.81
2023-04-30T09:45:07.838Z,18.85
2023-04-30T09:46:11.276Z,18.96
2023-04-30T09:47:21.959Z,19.00
2023-04-30T09:48:29.470Z,19.02
2023-04-30T09:49:32.475Z,19.03
2023-04-30T09:50:43.256Z,19.19
2023-04-30T09:52:02.436Z,19.35
2023-04-30T09:53:09.844Z,19.40
2023-04-30T09:54:14.145Z,19.47
2023-04-30T09:55:17.398Z,19.51
2023-04-30T09:56:26.836Z,19.49
2023-04-30T09:57:32.428Z,19.51
2023-04-30T09:58:39.018Z,19.57
2023-04-30T09:59:46.800Z,19.69
2023-04-30T10:00:52.535Z,19.67
2023-04-30T10:01:58.005Z,19.54
2023-04-30T10:03:07.301Z,19.44
2023-04-30T10:04:10.517Z,19.43
2023-04-30T10:05:13.551Z,19.52
2023-04-30T10:06:19.642Z,19.68
2023-04-30T10:07:25.355Z,19.83
2023-04-30T10:08:28.981Z,19.98
2023-04-30T10:09:44.908Z,20.06
2023-04-30T10:10:54.376Z,19.96
2023-04-30T10:11:57.480Z,19.93
2023-04-30T10:13:07.560Z,19.96
2023-04-30T10:14:12.983Z,19.98
2023-04-30T10:15:21.162Z,20.00
2023-04-30T10:16:34.770Z,19.95
2023-04-30T10:17:41.649Z,19.88
2023-04-30T10:18:46.586Z,19.84
2023-04-30T10:19:52.578Z,19.84
2023-04-30T10:20:57.173Z,19.84
2023-04-30T10:22:01.715Z,19.89
2023-04-30T10:23:05.722Z,19.89
2023-04-30T10:24:11.634Z,19.81
2023-04-30T10:25:14.734Z,19.75
2023-04-30T10:26:18.042Z,19.78
2023-04-30T10:27:21.406Z,19.81
2023-04-30T10:28:26.027Z,19.81
2023-04-30T10:29:28.918Z,19.73
2023-04-30T10:30:32.342Z,19.63
2023-04-30T10:31:37.374Z,19.61
2023-04-30T10:33:01.536Z,19.65
2023-04-30T10:34:29.106Z,19.73
2023-04-30T10:35:41.589Z,19.76
2023-04-30T10:36:50.637Z,19.80
2023-04-30T10:38:09.992Z,19.80
2023-04-30T10:39:13.714Z,19.83
2023-04-30T10:40:16.715Z,19.86
2023-04-30T10:41:20.373Z,19.91
2023-04-30T10:42:23.283Z,20.02
2023-04-30T10:43:26.549Z,20.06
2023-04-30T10:44:32.842Z,20.14
2023-04-30T10:45:38.299Z,20.20
2023-04-30T10:46:41.789Z,20.19
2023-04-30T10:47:48.293Z,20.20
2023-04-30T10:48:54.289Z,20.23
2023-04-30T10:50:09.071Z,20.27
2023-04-30T10:51:11.963Z,20.29
2023-04-30T10:52:14.774Z,20.30
2023-04-30T10:53:20.260Z,20.31
2023-04-30T10:54:30.184Z,20.32
2023-04-30T10:55:33.608Z,20.34
2023-04-30T10:56:36.668Z,20.33
2023-04-30T10:57:44.123Z,20.34
2023-04-30T10:58:47.596Z,20.33
2023-04-30T10:59:50.371Z,20.42
2023-04-30T11:01:12.299Z,20.50
2023-04-30T11:02:18.121Z,20.51
2023-04-30T11:03:22.608Z,20.44
2023-04-30T11:04:26.620Z,20.38
2023-04-30T11:05:39.980Z,20.39
2023-04-30T11:07:00.853Z,20.42
2023-04-30T11:08:04.266Z,20.51
2023-04-30T11:09:07.425Z,20.54
2023-04-30T11:10:10.672Z,20.47
2023-04-30T11:11:22.983Z,20.43
2023-04-30T11:12:30.565Z,20.41
2023-04-30T11:13:47.740Z,20.38
2023-04-30T11:14:50.933Z,20.33
2023-04-30T11:15:54.493Z,20.31
2023-04-30T11:16:59.670Z,20.30
2023-04-30T11:18:02.854Z,20.34
2023-04-30T11:19:09.480Z,20.35
2023-04-30T11:20:15.456Z,20.42
2023-04-30T11:21:21.514Z,20.52
2023-04-30T11:22:25.438Z,20.57
2023-04-30T11:23:39.389Z,20.56
2023-04-30T11:25:00.006Z,20.54
2023-04-30T11:26:03.731Z,20.51
2023-04-30T11:27:06.998Z,20.61
2023-04-30T11:28:15.884Z,20.73
2023-04-30T11:29:18.991Z,20.85
2023-04-30T11:30:22.352Z,20.97
2023-04-30T11:31:33.768Z,20.98
2023-04-30T11:32:38.667Z,20.94
2023-04-30T11:33:41.816Z,20.97
2023-04-30T11:35:57.428Z,21.32
2023-04-30T11:37:03.618Z,21.38
2023-04-30T11:38:08.659Z,21.33
2023-04-30T11:39:12.196Z,21.34
2023-04-30T11:40:15.760Z,21.34
2023-04-30T11:41:21.488Z,21.29
2023-04-30T11:42:24.345Z,21.26
2023-04-30T11:43:32.004Z,21.33
2023-04-30T11:44:34.926Z,21.38
2023-04-30T11:45:39.363Z,21.37
2023-04-30T11:46:42.324Z,21.35
2023-04-30T11:47:46.377Z,21.36
2023-04-30T11:48:49.799Z,21.45
2023-04-30T11:49:53.659Z,21.65
2023-04-30T11:50:56.856Z,21.78
2023-04-30T11:51:59.835Z,21.93
2023-04-30T11:53:04.039Z,22.04
2023-04-30T11:54:08.856Z,22.15
2023-04-30T11:55:16.510Z,22.25
2023-04-30T11:56:21.458Z,22.29
2023-04-30T11:57:24.395Z,22.36
2023-04-30T11:58:28.976Z,22.44
2023-04-30T11:59:40.238Z,22.51
2023-04-30T12:00:43.160Z,22.52
2023-04-30T12:01:46.265Z,22.42
2023-04-30T12:02:50.262Z,22.39
2023-04-30T12:03:57.545Z,22.43
2023-04-30T12:05:00.729Z,22.49
2023-04-30T12:06:03.727Z,22.47
2023-04-30T12:07:08.963Z,22.54
2023-04-30T12:08:12.458Z,22.68
2023-04-30T12:09:15.294Z,22.82
2023-04-30T12:10:21.305Z,22.90
2023-04-30T12:11:29.432Z,22.92
2023-04-30T12:12:32.616Z,22.99
2023-04-30T12:13:35.528Z,23.00
2023-04-30T12:14:38.433Z,22.99
2023-04-30T12:15:41.472Z,23.01
2023-04-30T12:16:50.323Z,22.98
2023-04-30T12:17:55.224Z,23.00
2023-04-30T12:18:58.156Z,22.98
2023-04-30T12:20:01.656Z,23.05
2023-04-30T12:21:04.896Z,23.13
2023-04-30T12:22:07.792Z,23.19
2023-04-30T12:23:10.798Z,23.25
2023-04-30T12:24:15.239Z,23.25
2023-04-30T12:25:22.002Z,23.27
2023-04-30T12:26:25.009Z,23.28
2023-04-30T12:27:27.892Z,23.32
2023-04-30T12:28:30.892Z,23.29
2023-04-30T12:29:33.804Z,23.29
2023-04-30T12:30:36.787Z,23.37
2023-04-30T12:31:39.841Z,23.58
2023-04-30T12:32:45.434Z,23.79
2023-04-30T12:33:57.512Z,24.03
2023-04-30T12:35:01.916Z,24.32
2023-04-30T12:36:10.094Z,24.54
2023-04-30T12:37:16.801Z,24.73
2023-04-30T12:38:20.406Z,24.69
2023-04-30T12:39:23.270Z,24.57
2023-04-30T12:40:27.574Z,24.42
2023-04-30T12:41:30.520Z,24.27
2023-04-30T12:42:34.481Z,24.37
2023-04-30T12:43:37.327Z,24.61
2023-04-30T12:44:45.392Z,24.82
2023-04-30T12:45:55.810Z,24.95
2023-04-30T12:47:01.135Z,25.01
2023-04-30T12:48:04.345Z,25.14
2023-04-30T12:49:07.244Z,25.37
2023-04-30T12:50:14.145Z,25.49
2023-04-30T12:51:20.232Z,25.47
2023-04-30T12:52:26.953Z,25.33
2023-04-30T12:53:29.984Z,25.37
2023-04-30T12:54:33.596Z,25.26
2023-04-30T12:55:37.940Z,25.09
2023-04-30T12:56:58.145Z,25.04
2023-04-30T12:58:13.234Z,25.10
2023-04-30T12:59:17.337Z,25.05
2023-04-30T13:00:22.965Z,25.09
2023-04-30T13:01:26.520Z,25.23
2023-04-30T13:02:32.093Z,25.35
2023-04-30T13:03:35.453Z,25.35
2023-04-30T13:04:39.545Z,25.29
2023-04-30T13:05:46.288Z,25.20
2023-04-30T13:06:49.722Z,25.05
2023-04-30T13:07:55.822Z,24.92
2023-04-30T13:08:59.270Z,24.82
2023-04-30T13:10:02.432Z,24.84
2023-04-30T13:11:05.741Z,24.83
2023-04-30T13:12:08.780Z,24.81
2023-04-30T13:13:13.703Z,24.83
2023-04-30T13:14:17.839Z,24.71
2023-04-30T13:15:20.820Z,24.47
2023-04-30T13:16:25.072Z,24.35
2023-04-30T13:17:28.959Z,24.29
2023-04-30T13:18:33.114Z,24.20
2023-04-30T13:19:36.013Z,24.06
2023-04-30T13:20:39.173Z,24.07
2023-04-30T13:21:42.088Z,23.99
2023-04-30T13:22:45.194Z,23.84
2023-04-30T13:23:53.436Z,23.72
2023-04-30T13:24:57.251Z,23.62
2023-04-30T13:26:00.157Z,23.59
2023-04-30T13:27:04.160Z,23.58
2023-04-30T13:28:07.309Z,23.50
2023-04-30T13:29:11.976Z,23.33
2023-04-30T13:30:14.844Z,23.20
2023-04-30T13:31:17.813Z,23.05
2023-04-30T13:32:20.914Z,22.83
2023-04-30T13:33:23.904Z,22.67
2023-04-30T13:34:26.974Z,22.55
2023-04-30T13:35:30.091Z,22.45
2023-04-30T13:36:33.153Z,22.39
2023-04-30T13:37:36.481Z,22.30
2023-04-30T13:38:39.641Z,22.16
2023-04-30T13:39:42.564Z,22.02
2023-04-30T13:40:45.387Z,21.91
2023-04-30T13:41:49.291Z,21.79
2023-04-30T13:42:52.165Z,21.62
2023-04-30T13:43:55.056Z,21.51
2023-04-30T13:44:58.214Z,21.36
2023-04-30T13:46:01.925Z,21.11
2023-04-30T13:47:04.902Z,20.90
2023-04-30T13:48:07.853Z,20.72
2023-04-30T13:49:10.754Z,20.51
2023-04-30T13:50:13.707Z,20.29
2023-04-30T13:51:16.589Z,20.15
2023-04-30T13:52:19.468Z,20.02
2023-04-30T13:53:22.788Z,19.90
2023-04-30T13:54:25.750Z,19.80
2023-04-30T13:55:29.419Z,19.64
2023-04-30T13:56:32.400Z,19.49
2023-04-30T13:57:35.565Z,19.38